sensor_id;sensor_type;location;lat;lon;timestamp;P1;durP1;ratioP1;P2;durP2;ratioP2
83550;SDS011;74617;47.082;15.524;2024-02-21T00:00:28;1.15;;;0.50;;
83550;SDS011;74617;47.082;15.524;2024-02-21T00:02:53;1.20;;;0.30;;
83550;SDS011;74617;47.082;15.524;2024-02-21T00:05:19;1.52;;;0.68;;
83550;SDS011;74617;47.082;15.524;2024-02-21T00:07:44;0.95;;;0.47;;
83550;SDS011;74617;47.082;15.524;2024-02-21T00:10:10;1.23;;;0.47;;
83550;SDS011;74617;47.082;15.524;2024-02-21T00:12:35;1.70;;;0.80;;
83550;SDS011;74617;47.082;15.524;2024-02-21T00:15:00;3.40;;;0.45;;
83550;SDS011;74617;47.082;15.524;2024-02-21T00:17:26;1.00;;;0.45;;
83550;SDS011;74617;47.082;15.524;2024-02-21T00:19:51;1.33;;;0.60;;
83550;SDS011;74617;47.082;15.524;2024-02-21T00:22:16;0.85;;;0.52;;
83550;SDS011;74617;47.082;15.524;2024-02-21T00:24:42;1.33;;;0.57;;
83550;SDS011;74617;47.082;15.524;2024-02-21T00:27:07;0.55;;;0.40;;
83550;SDS011;74617;47.082;15.524;2024-02-21T00:29:32;1.73;;;0.63;;
83550;SDS011;74617;47.082;15.524;2024-02-21T00:31:59;1.25;;;0.47;;
83550;SDS011;74617;47.082;15.524;2024-02-21T00:34:24;0.75;;;0.40;;
83550;SDS011;74617;47.082;15.524;2024-02-21T00:36:50;0.77;;;0.47;;
83550;SDS011;74617;47.082;15.524;2024-02-21T00:39:15;1.25;;;0.50;;
83550;SDS011;74617;47.082;15.524;2024-02-21T00:41:40;0.95;;;0.45;;
83550;SDS011;74617;47.082;15.524;2024-02-21T00:44:06;0.88;;;0.45;;
83550;SDS011;74617;47.082;15.524;2024-02-21T00:46:31;3.17;;;0.57;;
83550;SDS011;74617;47.082;15.524;2024-02-21T00:48:57;0.35;;;0.30;;
83550;SDS011;74617;47.082;15.524;2024-02-21T00:51:22;1.23;;;0.40;;
83550;SDS011;74617;47.082;15.524;2024-02-21T00:53:47;0.73;;;0.40;;
83550;SDS011;74617;47.082;15.524;2024-02-21T00:56:13;1.45;;;0.65;;
83550;SDS011;74617;47.082;15.524;2024-02-21T00:58:38;1.77;;;0.75;;
83550;SDS011;74617;47.082;15.524;2024-02-21T01:01:04;1.20;;;0.45;;
83550;SDS011;74617;47.082;15.524;2024-02-21T01:03:29;0.93;;;0.30;;
83550;SDS011;74617;47.082;15.524;2024-02-21T01:05:54;1.92;;;0.30;;
83550;SDS011;74617;47.082;15.524;2024-02-21T01:08:20;0.80;;;0.43;;
83550;SDS011;74617;47.082;15.524;2024-02-21T01:10:45;0.63;;;0.40;;
83550;SDS011;74617;47.082;15.524;2024-02-21T01:13:11;1.05;;;0.50;;
83550;SDS011;74617;47.082;15.524;2024-02-21T01:15:36;1.45;;;0.70;;
83550;SDS011;74617;47.082;15.524;2024-02-21T01:18:02;0.93;;;0.35;;
83550;SDS011;74617;47.082;15.524;2024-02-21T01:20:27;1.85;;;0.52;;
83550;SDS011;74617;47.082;15.524;2024-02-21T01:22:53;1.67;;;0.47;;
83550;SDS011;74617;47.082;15.524;2024-02-21T01:25:18;0.45;;;0.30;;
83550;SDS011;74617;47.082;15.524;2024-02-21T01:27:43;2.38;;;0.88;;
83550;SDS011;74617;47.082;15.524;2024-02-21T01:30:09;0.82;;;0.43;;
83550;SDS011;74617;47.082;15.524;2024-02-21T01:32:35;1.25;;;0.40;;
83550;SDS011;74617;47.082;15.524;2024-02-21T01:35:01;0.25;;;0.20;;
83550;SDS011;74617;47.082;15.524;2024-02-21T01:37:26;0.75;;;0.30;;
83550;SDS011;74617;47.082;15.524;2024-02-21T01:39:52;0.47;;;0.20;;
83550;SDS011;74617;47.082;15.524;2024-02-21T01:42:18;1.27;;;0.45;;
83550;SDS011;74617;47.082;15.524;2024-02-21T01:44:43;0.73;;;0.40;;
83550;SDS011;74617;47.082;15.524;2024-02-21T01:47:11;0.85;;;0.40;;
83550;SDS011;74617;47.082;15.524;2024-02-21T01:49:40;0.52;;;0.32;;
83550;SDS011;74617;47.082;15.524;2024-02-21T01:52:06;0.60;;;0.30;;
83550;SDS011;74617;47.082;15.524;2024-02-21T01:54:32;1.70;;;0.50;;
83550;SDS011;74617;47.082;15.524;2024-02-21T01:56:58;1.02;;;0.30;;
83550;SDS011;74617;47.082;15.524;2024-02-21T01:59:23;1.45;;;0.47;;
83550;SDS011;74617;47.082;15.524;2024-02-21T02:01:49;1.95;;;0.50;;
83550;SDS011;74617;47.082;15.524;2024-02-21T02:04:16;0.63;;;0.30;;
83550;SDS011;74617;47.082;15.524;2024-02-21T02:06:42;1.20;;;0.38;;
83550;SDS011;74617;47.082;15.524;2024-02-21T02:09:07;1.05;;;0.50;;
83550;SDS011;74617;47.082;15.524;2024-02-21T02:11:33;1.25;;;0.20;;
83550;SDS011;74617;47.082;15.524;2024-02-21T02:13:58;0.43;;;0.30;;
83550;SDS011;74617;47.082;15.524;2024-02-21T02:16:24;1.17;;;0.60;;
83550;SDS011;74617;47.082;15.524;2024-02-21T02:18:49;1.27;;;0.50;;
83550;SDS011;74617;47.082;15.524;2024-02-21T02:21:21;1.38;;;0.47;;
83550;SDS011;74617;47.082;15.524;2024-02-21T02:23:51;0.55;;;0.30;;
83550;SDS011;74617;47.082;15.524;2024-02-21T02:26:16;0.98;;;0.38;;
83550;SDS011;74617;47.082;15.524;2024-02-21T02:28:42;1.45;;;0.50;;
83550;SDS011;74617;47.082;15.524;2024-02-21T02:31:07;0.47;;;0.30;;
83550;SDS011;74617;47.082;15.524;2024-02-21T02:33:32;1.00;;;0.30;;
83550;SDS011;74617;47.082;15.524;2024-02-21T02:35:58;0.85;;;0.45;;
83550;SDS011;74617;47.082;15.524;2024-02-21T02:38:23;0.45;;;0.28;;
83550;SDS011;74617;47.082;15.524;2024-02-21T02:40:49;1.02;;;0.30;;
83550;SDS011;74617;47.082;15.524;2024-02-21T02:43:14;2.10;;;0.47;;
83550;SDS011;74617;47.082;15.524;2024-02-21T02:45:40;1.33;;;0.60;;
83550;SDS011;74617;47.082;15.524;2024-02-21T02:48:05;1.45;;;0.40;;
83550;SDS011;74617;47.082;15.524;2024-02-21T02:50:31;0.98;;;0.30;;
83550;SDS011;74617;47.082;15.524;2024-02-21T02:52:57;0.93;;;0.35;;
83550;SDS011;74617;47.082;15.524;2024-02-21T02:55:22;0.50;;;0.30;;
83550;SDS011;74617;47.082;15.524;2024-02-21T02:57:48;1.58;;;0.73;;
83550;SDS011;74617;47.082;15.524;2024-02-21T03:00:13;0.77;;;0.28;;
83550;SDS011;74617;47.082;15.524;2024-02-21T03:02:41;2.60;;;0.63;;
83550;SDS011;74617;47.082;15.524;2024-02-21T03:05:15;1.15;;;0.50;;
83550;SDS011;74617;47.082;15.524;2024-02-21T03:07:42;0.70;;;0.38;;
83550;SDS011;74617;47.082;15.524;2024-02-21T03:10:08;0.25;;;0.10;;
83550;SDS011;74617;47.082;15.524;2024-02-21T03:12:35;1.35;;;0.43;;
83550;SDS011;74617;47.082;15.524;2024-02-21T03:15:00;2.55;;;0.45;;
83550;SDS011;74617;47.082;15.524;2024-02-21T03:17:26;1.05;;;0.35;;
83550;SDS011;74617;47.082;15.524;2024-02-21T03:19:54;1.20;;;0.63;;
83550;SDS011;74617;47.082;15.524;2024-02-21T03:22:23;0.40;;;0.20;;
83550;SDS011;74617;47.082;15.524;2024-02-21T03:24:49;0.43;;;0.20;;
83550;SDS011;74617;47.082;15.524;2024-02-21T03:27:14;1.30;;;0.50;;
83550;SDS011;74617;47.082;15.524;2024-02-21T03:29:39;1.40;;;0.30;;
83550;SDS011;74617;47.082;15.524;2024-02-21T03:32:05;2.67;;;0.60;;
83550;SDS011;74617;47.082;15.524;2024-02-21T03:34:30;2.28;;;0.68;;
83550;SDS011;74617;47.082;15.524;2024-02-21T03:36:56;0.75;;;0.22;;
83550;SDS011;74617;47.082;15.524;2024-02-21T03:39:21;1.02;;;0.20;;
83550;SDS011;74617;47.082;15.524;2024-02-21T03:41:47;0.95;;;0.32;;
83550;SDS011;74617;47.082;15.524;2024-02-21T03:44:12;3.22;;;0.32;;
83550;SDS011;74617;47.082;15.524;2024-02-21T03:46:38;0.30;;;0.30;;
83550;SDS011;74617;47.082;15.524;2024-02-21T03:49:03;1.77;;;0.57;;
83550;SDS011;74617;47.082;15.524;2024-02-21T03:51:28;1.92;;;0.40;;
83550;SDS011;74617;47.082;15.524;2024-02-21T03:53:54;0.60;;;0.40;;
83550;SDS011;74617;47.082;15.524;2024-02-21T03:56:19;0.82;;;0.40;;
83550;SDS011;74617;47.082;15.524;2024-02-21T03:58:45;1.25;;;0.40;;
83550;SDS011;74617;47.082;15.524;2024-02-21T04:01:10;1.52;;;0.50;;
83550;SDS011;74617;47.082;15.524;2024-02-21T04:03:35;0.17;;;0.17;;
83550;SDS011;74617;47.082;15.524;2024-02-21T04:06:01;0.20;;;0.20;;
83550;SDS011;74617;47.082;15.524;2024-02-21T04:08:26;0.88;;;0.38;;
83550;SDS011;74617;47.082;15.524;2024-02-21T04:10:51;0.80;;;0.40;;
83550;SDS011;74617;47.082;15.524;2024-02-21T04:13:17;1.98;;;0.50;;
83550;SDS011;74617;47.082;15.524;2024-02-21T04:15:42;0.60;;;0.30;;
83550;SDS011;74617;47.082;15.524;2024-02-21T04:18:08;0.30;;;0.20;;
83550;SDS011;74617;47.082;15.524;2024-02-21T04:20:33;1.00;;;0.47;;
83550;SDS011;74617;47.082;15.524;2024-02-21T04:22:59;1.33;;;0.60;;
83550;SDS011;74617;47.082;15.524;2024-02-21T04:25:25;1.55;;;0.57;;
83550;SDS011;74617;47.082;15.524;2024-02-21T04:27:51;0.45;;;0.20;;
83550;SDS011;74617;47.082;15.524;2024-02-21T04:30:17;0.68;;;0.50;;
83550;SDS011;74617;47.082;15.524;2024-02-21T04:32:42;1.30;;;0.38;;
83550;SDS011;74617;47.082;15.524;2024-02-21T04:35:08;0.70;;;0.32;;
83550;SDS011;74617;47.082;15.524;2024-02-21T04:37:33;0.60;;;0.25;;
83550;SDS011;74617;47.082;15.524;2024-02-21T04:39:59;0.43;;;0.20;;
83550;SDS011;74617;47.082;15.524;2024-02-21T04:42:24;0.73;;;0.40;;
83550;SDS011;74617;47.082;15.524;2024-02-21T04:44:50;0.60;;;0.32;;
83550;SDS011;74617;47.082;15.524;2024-02-21T04:47:15;1.17;;;0.30;;
83550;SDS011;74617;47.082;15.524;2024-02-21T04:49:41;0.40;;;0.22;;
83550;SDS011;74617;47.082;15.524;2024-02-21T04:52:06;0.85;;;0.45;;
83550;SDS011;74617;47.082;15.524;2024-02-21T04:54:32;0.40;;;0.30;;
83550;SDS011;74617;47.082;15.524;2024-02-21T04:56:57;1.85;;;0.43;;
83550;SDS011;74617;47.082;15.524;2024-02-21T04:59:22;1.00;;;0.57;;
83550;SDS011;74617;47.082;15.524;2024-02-21T05:01:48;0.30;;;0.20;;
83550;SDS011;74617;47.082;15.524;2024-02-21T05:04:13;0.85;;;0.38;;
83550;SDS011;74617;47.082;15.524;2024-02-21T05:06:41;1.35;;;0.30;;
83550;SDS011;74617;47.082;15.524;2024-02-21T05:09:07;0.73;;;0.40;;
83550;SDS011;74617;47.082;15.524;2024-02-21T05:11:34;0.90;;;0.40;;
83550;SDS011;74617;47.082;15.524;2024-02-21T05:14:00;0.22;;;0.10;;
83550;SDS011;74617;47.082;15.524;2024-02-21T05:16:25;0.17;;;0.17;;
83550;SDS011;74617;47.082;15.524;2024-02-21T05:18:50;0.93;;;0.38;;
83550;SDS011;74617;47.082;15.524;2024-02-21T05:21:16;2.97;;;0.57;;
83550;SDS011;74617;47.082;15.524;2024-02-21T05:23:41;0.55;;;0.30;;
83550;SDS011;74617;47.082;15.524;2024-02-21T05:26:07;0.80;;;0.47;;
83550;SDS011;74617;47.082;15.524;2024-02-21T05:28:32;1.27;;;0.60;;
83550;SDS011;74617;47.082;15.524;2024-02-21T05:30:57;0.90;;;0.45;;
83550;SDS011;74617;47.082;15.524;2024-02-21T05:33:23;3.78;;;0.95;;
83550;SDS011;74617;47.082;15.524;2024-02-21T05:35:49;1.77;;;0.77;;
83550;SDS011;74617;47.082;15.524;2024-02-21T05:38:15;2.58;;;0.85;;
83550;SDS011;74617;47.082;15.524;2024-02-21T05:40:41;4.40;;;0.95;;
83550;SDS011;74617;47.082;15.524;2024-02-21T05:43:07;1.60;;;0.75;;
83550;SDS011;74617;47.082;15.524;2024-02-21T05:45:33;2.25;;;1.00;;
83550;SDS011;74617;47.082;15.524;2024-02-21T05:47:59;3.78;;;1.23;;
83550;SDS011;74617;47.082;15.524;2024-02-21T05:50:24;2.85;;;1.05;;
83550;SDS011;74617;47.082;15.524;2024-02-21T05:52:51;3.72;;;1.13;;
83550;SDS011;74617;47.082;15.524;2024-02-21T05:55:17;1.58;;;0.65;;
83550;SDS011;74617;47.082;15.524;2024-02-21T05:57:43;2.25;;;0.82;;
83550;SDS011;74617;47.082;15.524;2024-02-21T06:00:08;1.33;;;0.70;;
83550;SDS011;74617;47.082;15.524;2024-02-21T06:02:34;1.63;;;0.68;;
83550;SDS011;74617;47.082;15.524;2024-02-21T06:05:00;5.38;;;0.93;;
83550;SDS011;74617;47.082;15.524;2024-02-21T06:07:25;2.90;;;1.10;;
83550;SDS011;74617;47.082;15.524;2024-02-21T06:09:50;2.00;;;1.02;;
83550;SDS011;74617;47.082;15.524;2024-02-21T06:12:16;2.65;;;0.80;;
83550;SDS011;74617;47.082;15.524;2024-02-21T06:14:41;2.10;;;1.20;;
83550;SDS011;74617;47.082;15.524;2024-02-21T06:17:06;1.52;;;0.70;;
83550;SDS011;74617;47.082;15.524;2024-02-21T06:19:32;2.45;;;0.50;;
83550;SDS011;74617;47.082;15.524;2024-02-21T06:21:57;2.75;;;0.90;;
83550;SDS011;74617;47.082;15.524;2024-02-21T06:24:23;2.63;;;0.98;;
83550;SDS011;74617;47.082;15.524;2024-02-21T06:26:48;6.18;;;0.90;;
83550;SDS011;74617;47.082;15.524;2024-02-21T06:29:13;2.83;;;0.70;;
83550;SDS011;74617;47.082;15.524;2024-02-21T06:31:39;5.97;;;1.45;;
83550;SDS011;74617;47.082;15.524;2024-02-21T06:34:05;5.72;;;2.00;;
83550;SDS011;74617;47.082;15.524;2024-02-21T06:36:31;11.10;;;1.67;;
83550;SDS011;74617;47.082;15.524;2024-02-21T06:38:56;10.10;;;1.52;;
83550;SDS011;74617;47.082;15.524;2024-02-21T06:41:22;7.22;;;1.20;;
83550;SDS011;74617;47.082;15.524;2024-02-21T06:43:47;8.07;;;1.10;;
83550;SDS011;74617;47.082;15.524;2024-02-21T06:46:25;10.68;;;1.80;;
83550;SDS011;74617;47.082;15.524;2024-02-21T06:48:51;7.65;;;1.00;;
83550;SDS011;74617;47.082;15.524;2024-02-21T06:51:17;4.05;;;1.27;;
83550;SDS011;74617;47.082;15.524;2024-02-21T06:53:42;4.45;;;0.90;;
83550;SDS011;74617;47.082;15.524;2024-02-21T06:56:09;4.63;;;1.17;;
83550;SDS011;74617;47.082;15.524;2024-02-21T06:58:34;2.70;;;1.10;;
83550;SDS011;74617;47.082;15.524;2024-02-21T07:01:00;4.13;;;0.60;;
83550;SDS011;74617;47.082;15.524;2024-02-21T07:03:25;2.53;;;0.73;;
83550;SDS011;74617;47.082;15.524;2024-02-21T07:05:51;1.10;;;0.68;;
83550;SDS011;74617;47.082;15.524;2024-02-21T07:08:16;6.78;;;0.98;;
83550;SDS011;74617;47.082;15.524;2024-02-21T07:10:42;4.25;;;0.70;;
83550;SDS011;74617;47.082;15.524;2024-02-21T07:13:07;1.52;;;0.50;;
83550;SDS011;74617;47.082;15.524;2024-02-21T07:15:32;2.90;;;0.75;;
83550;SDS011;74617;47.082;15.524;2024-02-21T07:17:58;1.23;;;0.50;;
83550;SDS011;74617;47.082;15.524;2024-02-21T07:20:24;1.55;;;0.68;;
83550;SDS011;74617;47.082;15.524;2024-02-21T07:22:49;5.15;;;0.95;;
83550;SDS011;74617;47.082;15.524;2024-02-21T07:25:15;2.95;;;1.00;;
83550;SDS011;74617;47.082;15.524;2024-02-21T07:27:40;4.85;;;0.95;;
83550;SDS011;74617;47.082;15.524;2024-02-21T07:30:07;3.55;;;0.75;;
83550;SDS011;74617;47.082;15.524;2024-02-21T07:32:32;3.28;;;0.95;;
83550;SDS011;74617;47.082;15.524;2024-02-21T07:34:58;3.70;;;1.38;;
83550;SDS011;74617;47.082;15.524;2024-02-21T07:37:23;2.33;;;0.70;;
83550;SDS011;74617;47.082;15.524;2024-02-21T07:39:48;2.00;;;0.70;;
83550;SDS011;74617;47.082;15.524;2024-02-21T07:42:14;1.17;;;0.63;;
83550;SDS011;74617;47.082;15.524;2024-02-21T07:44:40;4.82;;;0.95;;
83550;SDS011;74617;47.082;15.524;2024-02-21T07:47:06;3.42;;;1.08;;
83550;SDS011;74617;47.082;15.524;2024-02-21T07:49:32;1.45;;;0.47;;
83550;SDS011;74617;47.082;15.524;2024-02-21T07:51:57;0.68;;;0.47;;
83550;SDS011;74617;47.082;15.524;2024-02-21T07:54:25;3.00;;;0.93;;
83550;SDS011;74617;47.082;15.524;2024-02-21T07:56:51;1.25;;;0.50;;
83550;SDS011;74617;47.082;15.524;2024-02-21T07:59:16;1.23;;;0.60;;
83550;SDS011;74617;47.082;15.524;2024-02-21T08:01:42;2.60;;;0.80;;
83550;SDS011;74617;47.082;15.524;2024-02-21T08:04:07;2.55;;;0.82;;
83550;SDS011;74617;47.082;15.524;2024-02-21T08:06:33;2.22;;;0.80;;
83550;SDS011;74617;47.082;15.524;2024-02-21T08:08:58;1.45;;;0.57;;
83550;SDS011;74617;47.082;15.524;2024-02-21T08:11:25;3.78;;;0.93;;
83550;SDS011;74617;47.082;15.524;2024-02-21T08:13:51;3.65;;;0.85;;
83550;SDS011;74617;47.082;15.524;2024-02-21T08:16:16;2.72;;;0.95;;
83550;SDS011;74617;47.082;15.524;2024-02-21T08:18:43;3.50;;;1.23;;
83550;SDS011;74617;47.082;15.524;2024-02-21T08:21:09;1.65;;;0.60;;
83550;SDS011;74617;47.082;15.524;2024-02-21T08:23:34;2.10;;;0.60;;
83550;SDS011;74617;47.082;15.524;2024-02-21T08:26:02;2.20;;;0.73;;
83550;SDS011;74617;47.082;15.524;2024-02-21T08:28:28;1.50;;;0.40;;
83550;SDS011;74617;47.082;15.524;2024-02-21T08:30:53;3.28;;;0.63;;
83550;SDS011;74617;47.082;15.524;2024-02-21T08:33:19;3.78;;;0.75;;
83550;SDS011;74617;47.082;15.524;2024-02-21T08:35:49;1.15;;;0.52;;
83550;SDS011;74617;47.082;15.524;2024-02-21T08:38:15;1.63;;;0.60;;
83550;SDS011;74617;47.082;15.524;2024-02-21T08:40:40;2.70;;;0.60;;
83550;SDS011;74617;47.082;15.524;2024-02-21T08:43:05;2.33;;;0.88;;
83550;SDS011;74617;47.082;15.524;2024-02-21T08:45:31;1.52;;;0.60;;
83550;SDS011;74617;47.082;15.524;2024-02-21T08:47:56;3.65;;;0.90;;
83550;SDS011;74617;47.082;15.524;2024-02-21T08:50:21;4.32;;;0.90;;
83550;SDS011;74617;47.082;15.524;2024-02-21T08:52:47;2.30;;;1.00;;
83550;SDS011;74617;47.082;15.524;2024-02-21T08:55:12;2.42;;;0.85;;
83550;SDS011;74617;47.082;15.524;2024-02-21T08:57:38;1.60;;;0.63;;
83550;SDS011;74617;47.082;15.524;2024-02-21T09:00:04;4.65;;;0.90;;
83550;SDS011;74617;47.082;15.524;2024-02-21T09:02:35;2.58;;;0.60;;
83550;SDS011;74617;47.082;15.524;2024-02-21T09:05:05;3.88;;;0.82;;
83550;SDS011;74617;47.082;15.524;2024-02-21T09:07:31;2.17;;;0.80;;
83550;SDS011;74617;47.082;15.524;2024-02-21T09:09:56;3.47;;;0.75;;
83550;SDS011;74617;47.082;15.524;2024-02-21T09:12:21;1.77;;;0.80;;
83550;SDS011;74617;47.082;15.524;2024-02-21T09:14:47;2.88;;;0.82;;
83550;SDS011;74617;47.082;15.524;2024-02-21T09:17:15;1.60;;;0.60;;
83550;SDS011;74617;47.082;15.524;2024-02-21T09:19:42;1.60;;;0.70;;
83550;SDS011;74617;47.082;15.524;2024-02-21T09:22:08;0.73;;;0.40;;
83550;SDS011;74617;47.082;15.524;2024-02-21T09:24:33;4.18;;;0.60;;
83550;SDS011;74617;47.082;15.524;2024-02-21T09:26:58;2.78;;;0.70;;
83550;SDS011;74617;47.082;15.524;2024-02-21T09:29:25;2.15;;;0.70;;
83550;SDS011;74617;47.082;15.524;2024-02-21T09:31:50;1.48;;;0.45;;
83550;SDS011;74617;47.082;15.524;2024-02-21T09:34:15;5.13;;;1.00;;
83550;SDS011;74617;47.082;15.524;2024-02-21T09:36:41;2.25;;;0.60;;
83550;SDS011;74617;47.082;15.524;2024-02-21T09:39:07;1.98;;;0.73;;
83550;SDS011;74617;47.082;15.524;2024-02-21T09:41:32;1.02;;;0.55;;
83550;SDS011;74617;47.082;15.524;2024-02-21T09:44:04;1.92;;;1.15;;
83550;SDS011;74617;47.082;15.524;2024-02-21T09:51:57;0.93;;;0.32;;
83550;SDS011;74617;47.082;15.524;2024-02-21T09:54:30;1.40;;;0.60;;
83550;SDS011;74617;47.082;15.524;2024-02-21T09:57:04;1.23;;;0.55;;
83550;SDS011;74617;47.082;15.524;2024-02-21T09:59:32;1.50;;;0.63;;
83550;SDS011;74617;47.082;15.524;2024-02-21T10:01:58;1.90;;;0.90;;
83550;SDS011;74617;47.082;15.524;2024-02-21T10:04:26;1.25;;;0.70;;
83550;SDS011;74617;47.082;15.524;2024-02-21T10:06:55;0.90;;;0.50;;
83550;SDS011;74617;47.082;15.524;2024-02-21T10:09:21;2.95;;;0.80;;
83550;SDS011;74617;47.082;15.524;2024-02-21T10:11:48;1.13;;;0.50;;
83550;SDS011;74617;47.082;15.524;2024-02-21T10:14:15;1.75;;;0.65;;
83550;SDS011;74617;47.082;15.524;2024-02-21T10:16:41;1.45;;;0.60;;
83550;SDS011;74617;47.082;15.524;2024-02-21T10:19:15;2.13;;;0.75;;
83550;SDS011;74617;47.082;15.524;2024-02-21T10:21:42;1.75;;;0.50;;
83550;SDS011;74617;47.082;15.524;2024-02-21T10:24:08;2.35;;;0.90;;
83550;SDS011;74617;47.082;15.524;2024-02-21T10:26:35;0.98;;;0.60;;
83550;SDS011;74617;47.082;15.524;2024-02-21T10:29:02;2.53;;;0.70;;
83550;SDS011;74617;47.082;15.524;2024-02-21T10:31:27;1.15;;;0.70;;
83550;SDS011;74617;47.082;15.524;2024-02-21T10:33:54;0.55;;;0.22;;
83550;SDS011;74617;47.082;15.524;2024-02-21T10:36:20;1.60;;;0.47;;
83550;SDS011;74617;47.082;15.524;2024-02-21T10:38:45;0.75;;;0.40;;
83550;SDS011;74617;47.082;15.524;2024-02-21T10:41:12;1.23;;;0.50;;
83550;SDS011;74617;47.082;15.524;2024-02-21T10:43:40;1.55;;;0.60;;
83550;SDS011;74617;47.082;15.524;2024-02-21T10:46:06;1.38;;;0.47;;
83550;SDS011;74617;47.082;15.524;2024-02-21T10:48:42;0.93;;;0.40;;
83550;SDS011;74617;47.082;15.524;2024-02-21T10:51:19;0.82;;;0.60;;
83550;SDS011;74617;47.082;15.524;2024-02-21T10:53:48;1.40;;;0.57;;
83550;SDS011;74617;47.082;15.524;2024-02-21T10:56:51;1.40;;;0.47;;
83550;SDS011;74617;47.082;15.524;2024-02-21T10:59:18;1.13;;;0.50;;
83550;SDS011;74617;47.082;15.524;2024-02-21T11:01:45;1.27;;;0.40;;
83550;SDS011;74617;47.082;15.524;2024-02-21T11:04:11;1.48;;;0.40;;
83550;SDS011;74617;47.082;15.524;2024-02-21T11:06:37;0.68;;;0.45;;
83550;SDS011;74617;47.082;15.524;2024-02-21T11:09:11;1.00;;;0.50;;
83550;SDS011;74617;47.082;15.524;2024-02-21T11:11:41;2.40;;;0.47;;
83550;SDS011;74617;47.082;15.524;2024-02-21T11:14:09;1.05;;;0.40;;
83550;SDS011;74617;47.082;15.524;2024-02-21T11:16:37;0.90;;;0.40;;
83550;SDS011;74617;47.082;15.524;2024-02-21T11:19:10;1.88;;;0.73;;
83550;SDS011;74617;47.082;15.524;2024-02-21T11:21:44;1.48;;;0.68;;
83550;SDS011;74617;47.082;15.524;2024-02-21T11:24:10;0.38;;;0.30;;
83550;SDS011;74617;47.082;15.524;2024-02-21T11:26:36;1.80;;;0.57;;
83550;SDS011;74617;47.082;15.524;2024-02-21T11:29:03;3.53;;;0.73;;
83550;SDS011;74617;47.082;15.524;2024-02-21T11:31:44;2.33;;;0.90;;
83550;SDS011;74617;47.082;15.524;2024-02-21T11:34:12;1.67;;;0.50;;
83550;SDS011;74617;47.082;15.524;2024-02-21T11:36:48;0.70;;;0.30;;
83550;SDS011;74617;47.082;15.524;2024-02-21T11:39:21;1.05;;;0.63;;
83550;SDS011;74617;47.082;15.524;2024-02-21T11:42:02;0.60;;;0.40;;
83550;SDS011;74617;47.082;15.524;2024-02-21T11:44:32;2.25;;;0.68;;
83550;SDS011;74617;47.082;15.524;2024-02-21T11:46:59;2.17;;;0.68;;
83550;SDS011;74617;47.082;15.524;2024-02-21T11:49:25;0.50;;;0.35;;
83550;SDS011;74617;47.082;15.524;2024-02-21T11:51:58;0.30;;;0.30;;
83550;SDS011;74617;47.082;15.524;2024-02-21T11:54:25;0.85;;;0.68;;
83550;SDS011;74617;47.082;15.524;2024-02-21T11:56:51;1.83;;;0.40;;
83550;SDS011;74617;47.082;15.524;2024-02-21T11:59:16;1.63;;;0.70;;
83550;SDS011;74617;47.082;15.524;2024-02-21T12:01:42;2.42;;;0.77;;
83550;SDS011;74617;47.082;15.524;2024-02-21T12:04:07;2.35;;;0.43;;
83550;SDS011;74617;47.082;15.524;2024-02-21T12:06:33;1.40;;;0.68;;
83550;SDS011;74617;47.082;15.524;2024-02-21T12:08:58;0.98;;;0.30;;
83550;SDS011;74617;47.082;15.524;2024-02-21T12:11:24;1.02;;;0.52;;
83550;SDS011;74617;47.082;15.524;2024-02-21T12:13:59;1.42;;;0.63;;
83550;SDS011;74617;47.082;15.524;2024-02-21T12:16:30;1.73;;;0.52;;
83550;SDS011;74617;47.082;15.524;2024-02-21T12:18:59;3.83;;;0.65;;
83550;SDS011;74617;47.082;15.524;2024-02-21T12:21:25;1.38;;;0.50;;
83550;SDS011;74617;47.082;15.524;2024-02-21T12:23:54;1.88;;;0.40;;
83550;SDS011;74617;47.082;15.524;2024-02-21T12:26:20;0.88;;;0.55;;
83550;SDS011;74617;47.082;15.524;2024-02-21T12:28:45;0.80;;;0.40;;
83550;SDS011;74617;47.082;15.524;2024-02-21T12:31:11;0.60;;;0.50;;
83550;SDS011;74617;47.082;15.524;2024-02-21T12:33:37;0.43;;;0.20;;
83550;SDS011;74617;47.082;15.524;2024-02-21T12:36:02;0.63;;;0.38;;
83550;SDS011;74617;47.082;15.524;2024-02-21T12:38:29;1.48;;;0.40;;
83550;SDS011;74617;47.082;15.524;2024-02-21T12:40:54;1.48;;;0.73;;
83550;SDS011;74617;47.082;15.524;2024-02-21T12:43:20;0.82;;;0.40;;
83550;SDS011;74617;47.082;15.524;2024-02-21T12:45:47;0.77;;;0.40;;
83550;SDS011;74617;47.082;15.524;2024-02-21T12:48:13;1.48;;;0.52;;
83550;SDS011;74617;47.082;15.524;2024-02-21T12:50:39;0.43;;;0.30;;
83550;SDS011;74617;47.082;15.524;2024-02-21T12:53:05;0.77;;;0.40;;
83550;SDS011;74617;47.082;15.524;2024-02-21T12:55:31;1.50;;;0.60;;
83550;SDS011;74617;47.082;15.524;2024-02-21T12:57:56;0.82;;;0.38;;
83550;SDS011;74617;47.082;15.524;2024-02-21T13:00:27;1.88;;;0.60;;
83550;SDS011;74617;47.082;15.524;2024-02-21T13:02:53;1.65;;;0.60;;
83550;SDS011;74617;47.082;15.524;2024-02-21T13:05:18;0.95;;;0.38;;
83550;SDS011;74617;47.082;15.524;2024-02-21T13:07:44;1.38;;;0.68;;
83550;SDS011;74617;47.082;15.524;2024-02-21T13:10:09;5.47;;;0.73;;
83550;SDS011;74617;47.082;15.524;2024-02-21T13:12:35;1.05;;;0.60;;
83550;SDS011;74617;47.082;15.524;2024-02-21T13:15:00;3.10;;;0.55;;
83550;SDS011;74617;47.082;15.524;2024-02-21T13:17:26;2.60;;;0.60;;
83550;SDS011;74617;47.082;15.524;2024-02-21T13:19:55;3.08;;;1.10;;
83550;SDS011;74617;47.082;15.524;2024-02-21T13:22:20;2.72;;;0.60;;
83550;SDS011;74617;47.082;15.524;2024-02-21T13:24:47;1.27;;;0.63;;
83550;SDS011;74617;47.082;15.524;2024-02-21T13:27:12;4.57;;;1.05;;
83550;SDS011;74617;47.082;15.524;2024-02-21T13:29:38;7.28;;;1.40;;
83550;SDS011;74617;47.082;15.524;2024-02-21T13:32:03;2.47;;;1.00;;
83550;SDS011;74617;47.082;15.524;2024-02-21T13:34:29;3.95;;;0.93;;
83550;SDS011;74617;47.082;15.524;2024-02-21T13:36:55;3.63;;;1.00;;
83550;SDS011;74617;47.082;15.524;2024-02-21T13:39:20;3.15;;;0.75;;
83550;SDS011;74617;47.082;15.524;2024-02-21T13:41:45;2.08;;;0.82;;
83550;SDS011;74617;47.082;15.524;2024-02-21T13:44:11;3.28;;;1.10;;
83550;SDS011;74617;47.082;15.524;2024-02-21T13:46:37;9.07;;;1.30;;
83550;SDS011;74617;47.082;15.524;2024-02-21T13:49:04;10.40;;;1.52;;
83550;SDS011;74617;47.082;15.524;2024-02-21T13:51:34;3.88;;;0.82;;
83550;SDS011;74617;47.082;15.524;2024-02-21T13:54:03;6.03;;;1.20;;
83550;SDS011;74617;47.082;15.524;2024-02-21T13:56:30;6.00;;;1.33;;
83550;SDS011;74617;47.082;15.524;2024-02-21T13:58:55;6.35;;;1.42;;
83550;SDS011;74617;47.082;15.524;2024-02-21T14:01:22;4.97;;;1.33;;
83550;SDS011;74617;47.082;15.524;2024-02-21T14:03:48;6.22;;;1.30;;
83550;SDS011;74617;47.082;15.524;2024-02-21T14:06:13;4.65;;;1.20;;
83550;SDS011;74617;47.082;15.524;2024-02-21T14:08:38;4.45;;;1.35;;
83550;SDS011;74617;47.082;15.524;2024-02-21T14:11:05;9.38;;;1.30;;
83550;SDS011;74617;47.082;15.524;2024-02-21T14:13:31;6.40;;;1.55;;
83550;SDS011;74617;47.082;15.524;2024-02-21T14:15:56;5.93;;;1.38;;
83550;SDS011;74617;47.082;15.524;2024-02-21T14:18:22;7.95;;;1.40;;
83550;SDS011;74617;47.082;15.524;2024-02-21T14:20:47;4.82;;;1.25;;
83550;SDS011;74617;47.082;15.524;2024-02-21T14:23:13;4.53;;;1.70;;
83550;SDS011;74617;47.082;15.524;2024-02-21T14:25:38;6.60;;;2.15;;
83550;SDS011;74617;47.082;15.524;2024-02-21T14:28:04;6.18;;;1.65;;
83550;SDS011;74617;47.082;15.524;2024-02-21T14:30:30;6.55;;;1.40;;
83550;SDS011;74617;47.082;15.524;2024-02-21T14:32:55;6.72;;;1.30;;